Terminal Aerodrome Forecast
Issued by NWS

Current Version | Previous Version | Graphics & Text | Print | Product List | Glossary On
Versions: 1 2 3 4 5 6 7 8 9 10 11 12 13 14 15 16 17 18 19 20 21
000
FTUS41 KILN 121603 AAB
TAFLUK
TAF AMD
KLUK 121603Z 1216/1312 22006KT 2SM -SN OVC028
     FM121700 24009KT P6SM OVC035
     FM122100 28012G22KT P6SM -SHSN OVC022
     FM122300 31015G25KT 3SM -SHSN OVC018
     FM130300 31014G23KT P6SM -SHSN OVC022
     FM130600 31012G20KT 5SM -SHSN BKN022
     FM130900 31010KT P6SM BKN035=

USA.gov is the U.S. government's official web portal to all federal, state and local government web resources and services.